sensor_id;sensor_type;location;lat;lon;timestamp;pressure;altitude;pressure_sealevel;temperature;humidity
59194;BME280;44967;48.598;15.650;2023-04-27T00:01:35;98466.38;;;5.46;70.94
59194;BME280;44967;48.598;15.650;2023-04-27T00:04:04;98468.09;;;5.52;70.50
59194;BME280;44967;48.598;15.650;2023-04-27T00:06:31;98471.59;;;5.49;70.33
59194;BME280;44967;48.598;15.650;2023-04-27T00:08:57;98476.84;;;5.46;69.64
59194;BME280;44967;48.598;15.650;2023-04-27T00:11:23;98471.69;;;5.36;69.92
59194;BME280;44967;48.598;15.650;2023-04-27T00:13:50;98470.84;;;5.32;70.75
59194;BME280;44967;48.598;15.650;2023-04-27T00:16:15;98461.22;;;5.36;70.17
59194;BME280;44967;48.598;15.650;2023-04-27T00:18:41;98462.16;;;5.29;70.55
59194;BME280;44967;48.598;15.650;2023-04-27T00:21:08;98459.50;;;5.30;70.29
59194;BME280;44967;48.598;15.650;2023-04-27T00:23:34;98452.56;;;5.25;70.23
59194;BME280;44967;48.598;15.650;2023-04-27T00:26:00;98459.59;;;5.21;70.77
59194;BME280;44967;48.598;15.650;2023-04-27T00:28:25;98456.09;;;5.20;70.71
59194;BME280;44967;48.598;15.650;2023-04-27T00:30:51;98456.13;;;5.14;71.54
59194;BME280;44967;48.598;15.650;2023-04-27T00:33:19;98461.34;;;5.14;71.70
59194;BME280;44967;48.598;15.650;2023-04-27T00:35:45;98456.19;;;5.04;72.52
59194;BME280;44967;48.598;15.650;2023-04-27T00:38:12;98448.31;;;5.07;71.89
59194;BME280;44967;48.598;15.650;2023-04-27T00:40:38;98447.47;;;5.03;71.48
59194;BME280;44967;48.598;15.650;2023-04-27T00:43:04;98454.47;;;5.01;71.47
59194;BME280;44967;48.598;15.650;2023-04-27T00:45:29;98453.66;;;4.92;71.89
59194;BME280;44967;48.598;15.650;2023-04-27T00:47:55;98456.25;;;4.93;71.92
59194;BME280;44967;48.598;15.650;2023-04-27T00:50:27;98452.81;;;4.82;72.09
59194;BME280;44967;48.598;15.650;2023-04-27T00:52:56;98454.53;;;4.88;71.93
59194;BME280;44967;48.598;15.650;2023-04-27T00:55:23;98450.22;;;4.79;72.09
59194;BME280;44967;48.598;15.650;2023-04-27T00:57:49;98449.34;;;4.80;71.45
59194;BME280;44967;48.598;15.650;2023-04-27T01:00:15;98460.69;;;4.74;70.91
59194;BME280;44967;48.598;15.650;2023-04-27T01:02:41;98453.78;;;4.64;71.28
59194;BME280;44967;48.598;15.650;2023-04-27T01:05:08;98450.28;;;4.62;71.65
59194;BME280;44967;48.598;15.650;2023-04-27T01:07:38;98463.44;;;4.43;72.64
59194;BME280;44967;48.598;15.650;2023-04-27T01:10:05;98447.75;;;4.43;73.14
59194;BME280;44967;48.598;15.650;2023-04-27T01:12:31;98446.88;;;4.48;72.76
59194;BME280;44967;48.598;15.650;2023-04-27T01:14:58;98453.00;;;4.44;71.92
59194;BME280;44967;48.598;15.650;2023-04-27T01:17:24;98451.31;;;4.34;72.20
59194;BME280;44967;48.598;15.650;2023-04-27T01:19:50;98451.31;;;4.30;71.84
59194;BME280;44967;48.598;15.650;2023-04-27T01:22:20;98451.31;;;4.19;72.16
59194;BME280;44967;48.598;15.650;2023-04-27T01:24:46;98447.88;;;4.14;72.43
59194;BME280;44967;48.598;15.650;2023-04-27T01:27:12;98453.94;;;4.19;72.13
59194;BME280;44967;48.598;15.650;2023-04-27T01:29:38;98450.47;;;4.11;71.93
59194;BME280;44967;48.598;15.650;2023-04-27T01:32:04;98453.13;;;3.99;71.89
59194;BME280;44967;48.598;15.650;2023-04-27T01:34:30;98451.41;;;3.93;72.56
59194;BME280;44967;48.598;15.650;2023-04-27T01:36:59;98460.13;;;3.91;72.34
59194;BME280;44967;48.598;15.650;2023-04-27T01:39:25;98458.38;;;3.87;72.13
59194;BME280;44967;48.598;15.650;2023-04-27T01:41:51;98454.03;;;3.76;73.04
59194;BME280;44967;48.598;15.650;2023-04-27T01:44:17;98454.91;;;3.74;72.92
59194;BME280;44967;48.598;15.650;2023-04-27T01:46:43;98453.19;;;3.62;73.12
59194;BME280;44967;48.598;15.650;2023-04-27T01:49:08;98452.31;;;3.59;73.05
59194;BME280;44967;48.598;15.650;2023-04-27T01:51:34;98451.41;;;3.52;72.52
59194;BME280;44967;48.598;15.650;2023-04-27T01:54:00;98454.03;;;3.49;72.72
59194;BME280;44967;48.598;15.650;2023-04-27T01:56:25;98456.66;;;3.34;73.56
59194;BME280;44967;48.598;15.650;2023-04-27T01:58:54;98454.91;;;3.35;73.79
59194;BME280;44967;48.598;15.650;2023-04-27T02:01:20;98459.25;;;3.32;73.99
59194;BME280;44967;48.598;15.650;2023-04-27T02:03:46;98461.88;;;3.31;73.17
59194;BME280;44967;48.598;15.650;2023-04-27T02:06:11;98467.97;;;3.30;72.88
59194;BME280;44967;48.598;15.650;2023-04-27T02:08:37;98465.34;;;3.18;73.22
59194;BME280;44967;48.598;15.650;2023-04-27T02:11:03;98467.09;;;3.28;73.18
59194;BME280;44967;48.598;15.650;2023-04-27T02:13:28;98461.84;;;3.20;72.54
59194;BME280;44967;48.598;15.650;2023-04-27T02:15:54;98476.66;;;3.08;72.49
59194;BME280;44967;48.598;15.650;2023-04-27T02:18:20;98472.31;;;3.14;72.56
59194;BME280;44967;48.598;15.650;2023-04-27T02:20:47;98474.06;;;3.27;71.74
59194;BME280;44967;48.598;15.650;2023-04-27T02:23:12;98468.84;;;3.26;72.57
59194;BME280;44967;48.598;15.650;2023-04-27T02:25:38;98480.16;;;3.22;72.67
59194;BME280;44967;48.598;15.650;2023-04-27T02:28:07;98481.00;;;3.18;71.96
59194;BME280;44967;48.598;15.650;2023-04-27T02:30:32;98483.63;;;3.18;72.21
59194;BME280;44967;48.598;15.650;2023-04-27T02:32:59;98478.38;;;3.06;72.36
59194;BME280;44967;48.598;15.650;2023-04-27T02:35:25;98485.31;;;3.01;72.62
59194;BME280;44967;48.598;15.650;2023-04-27T02:37:51;98477.50;;;3.13;72.21
59194;BME280;44967;48.598;15.650;2023-04-27T02:40:16;98479.25;;;3.09;72.02
59194;BME280;44967;48.598;15.650;2023-04-27T02:42:42;98476.66;;;3.08;72.67
59194;BME280;44967;48.598;15.650;2023-04-27T02:45:08;98473.16;;;3.00;72.32
59194;BME280;44967;48.598;15.650;2023-04-27T02:47:34;98473.13;;;2.91;72.35
59194;BME280;44967;48.598;15.650;2023-04-27T02:50:00;98480.06;;;2.90;72.55
59194;BME280;44967;48.598;15.650;2023-04-27T02:52:26;98481.84;;;2.96;72.85
59194;BME280;44967;48.598;15.650;2023-04-27T02:54:52;98479.25;;;3.03;72.74
59194;BME280;44967;48.598;15.650;2023-04-27T02:57:17;98482.72;;;3.02;72.27
59194;BME280;44967;48.598;15.650;2023-04-27T02:59:43;98488.81;;;3.09;72.30
59194;BME280;44967;48.598;15.650;2023-04-27T03:02:09;98479.25;;;3.08;72.59
59194;BME280;44967;48.598;15.650;2023-04-27T03:04:34;98486.19;;;3.04;72.41
59194;BME280;44967;48.598;15.650;2023-04-27T03:07:02;98474.88;;;2.98;73.17
59194;BME280;44967;48.598;15.650;2023-04-27T03:09:28;98482.72;;;3.02;73.31
59194;BME280;44967;48.598;15.650;2023-04-27T03:11:54;98480.09;;;2.99;73.57
59194;BME280;44967;48.598;15.650;2023-04-27T03:14:20;98478.34;;;3.04;73.71
59194;BME280;44967;48.598;15.650;2023-04-27T03:16:47;98472.25;;;2.95;74.47
59194;BME280;44967;48.598;15.650;2023-04-27T03:19:13;98483.59;;;3.03;72.93
59194;BME280;44967;48.598;15.650;2023-04-27T03:21:42;98480.13;;;3.14;72.69
59194;BME280;44967;48.598;15.650;2023-04-27T03:24:07;98471.44;;;3.08;72.76
59194;BME280;44967;48.598;15.650;2023-04-27T03:26:33;98478.38;;;3.03;73.62
59194;BME280;44967;48.598;15.650;2023-04-27T03:28:59;98480.13;;;3.10;72.97
59194;BME280;44967;48.598;15.650;2023-04-27T03:31:25;98479.25;;;3.03;73.42
59194;BME280;44967;48.598;15.650;2023-04-27T03:33:51;98473.16;;;3.06;73.62
59194;BME280;44967;48.598;15.650;2023-04-27T03:36:16;98478.38;;;3.10;72.71
59194;BME280;44967;48.598;15.650;2023-04-27T03:38:42;98474.00;;;3.05;73.22
59194;BME280;44967;48.598;15.650;2023-04-27T03:41:08;98480.13;;;3.04;72.94
59194;BME280;44967;48.598;15.650;2023-04-27T03:43:36;98475.75;;;3.01;73.58
59194;BME280;44967;48.598;15.650;2023-04-27T03:46:01;98478.38;;;3.00;73.88
59194;BME280;44967;48.598;15.650;2023-04-27T03:48:27;98476.59;;;2.97;73.74
59194;BME280;44967;48.598;15.650;2023-04-27T03:50:53;98474.88;;;2.99;74.00
59194;BME280;44967;48.598;15.650;2023-04-27T03:53:18;98478.38;;;3.06;74.04
59194;BME280;44967;48.598;15.650;2023-04-27T03:55:44;98480.97;;;3.03;74.34
59194;BME280;44967;48.598;15.650;2023-04-27T03:58:10;98477.50;;;3.07;74.43
59194;BME280;44967;48.598;15.650;2023-04-27T04:00:37;98491.44;;;3.10;74.17
59194;BME280;44967;48.598;15.650;2023-04-27T04:03:03;98492.31;;;3.17;73.86
59194;BME280;44967;48.598;15.650;2023-04-27T04:05:29;98483.63;;;3.21;74.13
59194;BME280;44967;48.598;15.650;2023-04-27T04:07:55;98481.00;;;3.24;74.13
59194;BME280;44967;48.598;15.650;2023-04-27T04:10:22;98480.16;;;3.26;73.89
59194;BME280;44967;48.598;15.650;2023-04-27T04:12:48;98483.63;;;3.33;73.24
59194;BME280;44967;48.598;15.650;2023-04-27T04:15:14;98493.22;;;3.42;74.06
59194;BME280;44967;48.598;15.650;2023-04-27T04:17:39;98488.88;;;3.45;74.21
59194;BME280;44967;48.598;15.650;2023-04-27T04:20:06;98490.63;;;3.64;74.19
59194;BME280;44967;48.598;15.650;2023-04-27T04:22:38;98495.84;;;3.67;74.33
59194;BME280;44967;48.598;15.650;2023-04-27T04:25:05;98498.47;;;3.75;73.85
59194;BME280;44967;48.598;15.650;2023-04-27T04:27:30;98501.97;;;3.71;74.23
59194;BME280;44967;48.598;15.650;2023-04-27T04:29:56;98501.06;;;3.76;74.19
59194;BME280;44967;48.598;15.650;2023-04-27T04:32:25;98501.06;;;3.76;73.87
59194;BME280;44967;48.598;15.650;2023-04-27T04:34:54;98504.56;;;3.78;73.90
59194;BME280;44967;48.598;15.650;2023-04-27T04:37:19;98501.97;;;3.83;74.49
59194;BME280;44967;48.598;15.650;2023-04-27T04:39:46;98503.69;;;3.83;73.94
59194;BME280;44967;48.598;15.650;2023-04-27T04:42:11;98507.16;;;3.88;74.06
59194;BME280;44967;48.598;15.650;2023-04-27T04:44:38;98503.69;;;3.95;73.91
59194;BME280;44967;48.598;15.650;2023-04-27T04:47:04;98501.91;;;4.07;73.68
59194;BME280;44967;48.598;15.650;2023-04-27T04:49:30;98505.41;;;4.03;73.87
59194;BME280;44967;48.598;15.650;2023-04-27T04:51:56;98511.50;;;3.99;74.01
59194;BME280;44967;48.598;15.650;2023-04-27T04:54:22;98514.13;;;4.02;73.65
59194;BME280;44967;48.598;15.650;2023-04-27T04:56:48;98512.38;;;4.13;73.36
59194;BME280;44967;48.598;15.650;2023-04-27T04:59:13;98514.97;;;4.18;72.75
59194;BME280;44967;48.598;15.650;2023-04-27T05:01:39;98514.06;;;4.31;72.06
59194;BME280;44967;48.598;15.650;2023-04-27T05:04:05;98508.81;;;4.40;71.98
59194;BME280;44967;48.598;15.650;2023-04-27T05:06:31;98517.53;;;4.45;72.32
59194;BME280;44967;48.598;15.650;2023-04-27T05:08:57;98518.38;;;4.52;71.85
59194;BME280;44967;48.598;15.650;2023-04-27T05:11:23;98518.34;;;4.64;72.52
59194;BME280;44967;48.598;15.650;2023-04-27T05:13:48;98518.25;;;4.82;72.19
59194;BME280;44967;48.598;15.650;2023-04-27T05:16:14;98519.09;;;4.92;71.82
59194;BME280;44967;48.598;15.650;2023-04-27T05:18:40;98522.59;;;4.86;71.72
59194;BME280;44967;48.598;15.650;2023-04-27T05:21:16;98526.88;;;5.07;71.34
59194;BME280;44967;48.598;15.650;2023-04-27T05:23:45;98526.91;;;5.05;71.38
59194;BME280;44967;48.598;15.650;2023-04-27T05:26:13;98532.13;;;5.07;70.61
59194;BME280;44967;48.598;15.650;2023-04-27T05:28:39;98538.22;;;5.13;70.02
59194;BME280;44967;48.598;15.650;2023-04-27T05:31:06;98542.50;;;5.28;69.88
59194;BME280;44967;48.598;15.650;2023-04-27T05:33:32;98544.22;;;5.26;70.18
59194;BME280;44967;48.598;15.650;2023-04-27T05:35:58;98539.81;;;5.39;69.80
59194;BME280;44967;48.598;15.650;2023-04-27T05:38:24;98546.78;;;5.38;69.66
59194;BME280;44967;48.598;15.650;2023-04-27T05:40:56;98537.94;;;5.54;69.22
59194;BME280;44967;48.598;15.650;2023-04-27T05:43:23;98542.25;;;5.66;69.09
59194;BME280;44967;48.598;15.650;2023-04-27T05:45:49;98542.25;;;5.66;68.88
59194;BME280;44967;48.598;15.650;2023-04-27T05:48:15;98543.06;;;5.76;68.90
59194;BME280;44967;48.598;15.650;2023-04-27T05:50:41;98539.53;;;5.78;68.64
59194;BME280;44967;48.598;15.650;2023-04-27T05:53:06;98537.72;;;5.92;68.11
59194;BME280;44967;48.598;15.650;2023-04-27T05:55:32;98546.44;;;5.93;68.13
59194;BME280;44967;48.598;15.650;2023-04-27T05:57:59;98552.41;;;6.10;67.93
59194;BME280;44967;48.598;15.650;2023-04-27T06:00:26;98545.38;;;6.15;66.76
59194;BME280;44967;48.598;15.650;2023-04-27T06:02:52;98551.38;;;6.29;66.98
59194;BME280;44967;48.598;15.650;2023-04-27T06:05:19;98551.38;;;6.29;67.12
59194;BME280;44967;48.598;15.650;2023-04-27T06:07:46;98553.91;;;6.38;66.85
59194;BME280;44967;48.598;15.650;2023-04-27T06:10:15;98550.25;;;6.54;67.13
59194;BME280;44967;48.598;15.650;2023-04-27T06:12:41;98552.84;;;6.57;66.35
59194;BME280;44967;48.598;15.650;2023-04-27T06:15:07;98553.66;;;6.62;65.86
59194;BME280;44967;48.598;15.650;2023-04-27T06:17:37;98548.28;;;6.72;66.10
59194;BME280;44967;48.598;15.650;2023-04-27T06:20:06;98552.63;;;6.77;66.27
59194;BME280;44967;48.598;15.650;2023-04-27T06:22:32;98552.72;;;6.68;66.42
59194;BME280;44967;48.598;15.650;2023-04-27T06:24:58;98553.53;;;6.75;65.98
59194;BME280;44967;48.598;15.650;2023-04-27T06:27:24;98556.16;;;6.75;65.65
59194;BME280;44967;48.598;15.650;2023-04-27T06:29:50;98544.66;;;6.86;65.81
59194;BME280;44967;48.598;15.650;2023-04-27T06:32:18;98552.47;;;6.88;65.96
59194;BME280;44967;48.598;15.650;2023-04-27T06:34:44;98548.88;;;6.96;65.79
59194;BME280;44967;48.598;15.650;2023-04-27T06:37:09;98552.38;;;6.97;65.60
59194;BME280;44967;48.598;15.650;2023-04-27T06:39:35;98551.31;;;7.11;65.27
59194;BME280;44967;48.598;15.650;2023-04-27T06:42:01;98547.75;;;7.19;64.88
59194;BME280;44967;48.598;15.650;2023-04-27T06:44:28;98561.56;;;7.31;64.46
59194;BME280;44967;48.598;15.650;2023-04-27T06:46:54;98566.81;;;7.31;64.25
59194;BME280;44967;48.598;15.650;2023-04-27T06:49:20;98566.78;;;7.36;64.79
59194;BME280;44967;48.598;15.650;2023-04-27T06:51:47;98564.19;;;7.31;64.32
59194;BME280;44967;48.598;15.650;2023-04-27T06:54:18;98556.97;;;7.50;63.44
59194;BME280;44967;48.598;15.650;2023-04-27T06:56:44;98560.41;;;7.53;63.07
59194;BME280;44967;48.598;15.650;2023-04-27T06:59:10;98552.31;;;7.67;63.08
59194;BME280;44967;48.598;15.650;2023-04-27T07:01:36;98568.13;;;7.64;62.35
59194;BME280;44967;48.598;15.650;2023-04-27T07:04:02;98559.31;;;7.70;63.00
59194;BME280;44967;48.598;15.650;2023-04-27T07:06:28;98562.56;;;7.84;62.76
59194;BME280;44967;48.598;15.650;2023-04-27T07:08:54;98557.25;;;7.87;62.35
59194;BME280;44967;48.598;15.650;2023-04-27T07:11:20;98562.13;;;8.11;61.89
59194;BME280;44967;48.598;15.650;2023-04-27T07:13:46;98561.13;;;8.20;60.47
59194;BME280;44967;48.598;15.650;2023-04-27T07:16:11;98566.28;;;8.29;59.73
59194;BME280;44967;48.598;15.650;2023-04-27T07:18:37;98551.97;;;8.42;57.99
59194;BME280;44967;48.598;15.650;2023-04-27T07:21:03;98548.31;;;8.50;57.79
59194;BME280;44967;48.598;15.650;2023-04-27T07:23:28;98549.75;;;8.68;56.08
59194;BME280;44967;48.598;15.650;2023-04-27T07:25:54;98548.59;;;8.81;54.49
59194;BME280;44967;48.598;15.650;2023-04-27T07:28:20;98552.91;;;8.87;54.34
59194;BME280;44967;48.598;15.650;2023-04-27T07:30:45;98555.16;;;9.05;55.00
59194;BME280;44967;48.598;15.650;2023-04-27T07:33:11;98548.75;;;9.18;55.06
59194;BME280;44967;48.598;15.650;2023-04-27T07:35:37;98548.56;;;9.27;54.52
59194;BME280;44967;48.598;15.650;2023-04-27T07:38:03;98554.03;;;9.18;54.59
59194;BME280;44967;48.598;15.650;2023-04-27T07:40:29;98549.03;;;9.46;53.94
59194;BME280;44967;48.598;15.650;2023-04-27T07:42:57;98551.31;;;9.61;53.15
59194;BME280;44967;48.598;15.650;2023-04-27T07:45:23;98555.31;;;9.79;52.54
59194;BME280;44967;48.598;15.650;2023-04-27T07:47:59;98560.38;;;9.88;51.08
59194;BME280;44967;48.598;15.650;2023-04-27T07:50:27;98552.03;;;10.06;51.28
59194;BME280;44967;48.598;15.650;2023-04-27T07:52:54;98560.31;;;10.28;51.02
59194;BME280;44967;48.598;15.650;2023-04-27T07:55:21;98552.19;;;10.35;49.55
59194;BME280;44967;48.598;15.650;2023-04-27T07:57:48;98554.78;;;10.38;48.61
59194;BME280;44967;48.598;15.650;2023-04-27T08:00:15;98558.59;;;10.59;48.55
59194;BME280;44967;48.598;15.650;2023-04-27T08:02:41;98557.09;;;10.51;47.66
59194;BME280;44967;48.598;15.650;2023-04-27T08:05:07;98559.38;;;10.63;48.46
59194;BME280;44967;48.598;15.650;2023-04-27T08:07:34;98557.16;;;10.81;47.29
59194;BME280;44967;48.598;15.650;2023-04-27T08:09:59;98555.88;;;10.95;47.22
59194;BME280;44967;48.598;15.650;2023-04-27T08:12:25;98562.59;;;11.06;46.96
59194;BME280;44967;48.598;15.650;2023-04-27T08:14:51;98571.03;;;10.90;46.08
59194;BME280;44967;48.598;15.650;2023-04-27T08:17:17;98551.84;;;11.14;46.05
59194;BME280;44967;48.598;15.650;2023-04-27T08:19:43;98556.19;;;11.15;45.81
59194;BME280;44967;48.598;15.650;2023-04-27T08:22:09;98563.09;;;11.50;46.31
59194;BME280;44967;48.598;15.650;2023-04-27T08:24:35;98565.94;;;11.44;43.52
59194;BME280;44967;48.598;15.650;2023-04-27T08:27:00;98571.78;;;11.55;42.82
59194;BME280;44967;48.598;15.650;2023-04-27T08:29:28;98566.31;;;11.61;41.65
59194;BME280;44967;48.598;15.650;2023-04-27T08:31:55;98568.47;;;11.47;41.76
59194;BME280;44967;48.598;15.650;2023-04-27T08:34:21;98562.47;;;11.71;39.56
59194;BME280;44967;48.598;15.650;2023-04-27T08:36:47;98562.94;;;11.56;40.49
59194;BME280;44967;48.598;15.650;2023-04-27T08:39:12;98565.03;;;11.74;40.20
59194;BME280;44967;48.598;15.650;2023-04-27T08:41:41;98575.00;;;11.94;40.29
59194;BME280;44967;48.598;15.650;2023-04-27T08:44:07;98574.50;;;12.37;38.58
59194;BME280;44967;48.598;15.650;2023-04-27T08:46:32;98580.25;;;12.49;38.43
59194;BME280;44967;48.598;15.650;2023-04-27T08:48:58;98575.81;;;12.50;39.46
59194;BME280;44967;48.598;15.650;2023-04-27T08:51:24;98580.25;;;12.49;39.72
59194;BME280;44967;48.598;15.650;2023-04-27T08:53:54;98583.13;;;12.43;41.42
59194;BME280;44967;48.598;15.650;2023-04-27T08:56:22;98581.06;;;12.77;41.16
59194;BME280;44967;48.598;15.650;2023-04-27T08:58:50;98590.59;;;12.31;38.77
59194;BME280;44967;48.598;15.650;2023-04-27T09:01:16;98586.72;;;12.41;38.64
59194;BME280;44967;48.598;15.650;2023-04-27T09:03:42;98586.63;;;12.44;38.11
59194;BME280;44967;48.598;15.650;2023-04-27T09:06:14;98583.97;;;12.17;38.78
59194;BME280;44967;48.598;15.650;2023-04-27T09:08:44;98585.22;;;12.06;38.94
59194;BME280;44967;48.598;15.650;2023-04-27T09:11:11;98583.31;;;12.37;39.16
59194;BME280;44967;48.598;15.650;2023-04-27T09:13:39;98579.56;;;12.95;38.89
59194;BME280;44967;48.598;15.650;2023-04-27T09:16:05;98567.56;;;13.08;37.24
59194;BME280;44967;48.598;15.650;2023-04-27T09:18:34;98569.91;;;13.42;36.88
59194;BME280;44967;48.598;15.650;2023-04-27T09:21:01;98564.16;;;13.30;36.36
59194;BME280;44967;48.598;15.650;2023-04-27T09:23:38;98563.19;;;13.07;36.01
59194;BME280;44967;48.598;15.650;2023-04-27T09:26:06;98567.47;;;12.87;37.02
59194;BME280;44967;48.598;15.650;2023-04-27T09:28:34;98554.09;;;12.65;37.71
59194;BME280;44967;48.598;15.650;2023-04-27T09:31:02;98551.16;;;12.97;38.04
59194;BME280;44967;48.598;15.650;2023-04-27T09:33:33;98560.34;;;13.13;36.58
59194;BME280;44967;48.598;15.650;2023-04-27T09:36:02;98558.75;;;13.33;36.52
59194;BME280;44967;48.598;15.650;2023-04-27T09:38:29;98551.22;;;13.67;36.49
59194;BME280;44967;48.598;15.650;2023-04-27T09:40:55;98548.47;;;13.70;36.38
59194;BME280;44967;48.598;15.650;2023-04-27T09:43:22;98544.69;;;13.76;35.37
59194;BME280;44967;48.598;15.650;2023-04-27T09:45:49;98547.78;;;13.65;35.41
59194;BME280;44967;48.598;15.650;2023-04-27T09:48:16;98543.59;;;13.81;35.85
59194;BME280;44967;48.598;15.650;2023-04-27T09:50:44;98543.28;;;13.44;36.11
59194;BME280;44967;48.598;15.650;2023-04-27T09:53:43;98538.66;;;13.49;35.66
59194;BME280;44967;48.598;15.650;2023-04-27T09:56:46;98544.38;;;13.83;34.73
59194;BME280;44967;48.598;15.650;2023-04-27T09:59:39;98532.78;;;13.86;33.98
59194;BME280;44967;48.598;15.650;2023-04-27T10:02:10;98535.63;;;13.81;34.66
59194;BME280;44967;48.598;15.650;2023-04-27T10:07:20;98530.31;;;13.81;34.72
59194;BME280;44967;48.598;15.650;2023-04-27T10:09:48;98528.44;;;13.61;34.93
59194;BME280;44967;48.598;15.650;2023-04-27T10:12:35;98527.47;;;13.86;34.69
59194;BME280;44967;48.598;15.650;2023-04-27T10:15:13;98523.53;;;13.74;33.96
59194;BME280;44967;48.598;15.650;2023-04-27T10:17:46;98521.66;;;14.20;33.75
59194;BME280;44967;48.598;15.650;2023-04-27T10:20:13;98524.03;;;14.05;33.59
59194;BME280;44967;48.598;15.650;2023-04-27T10:22:41;98516.47;;;14.16;34.10
59194;BME280;44967;48.598;15.650;2023-04-27T10:25:19;98528.75;;;15.01;33.28
59194;BME280;44967;48.598;15.650;2023-04-27T10:27:52;98512.44;;;15.48;31.10
59194;BME280;44967;48.598;15.650;2023-04-27T10:30:19;98520.31;;;15.51;30.97
59194;BME280;44967;48.598;15.650;2023-04-27T10:32:50;98513.03;;;15.54;30.47
59194;BME280;44967;48.598;15.650;2023-04-27T10:35:16;98517.72;;;15.87;29.34
59194;BME280;44967;48.598;15.650;2023-04-27T10:37:42;98508.06;;;16.20;30.68
59194;BME280;44967;48.598;15.650;2023-04-27T10:40:10;98501.59;;;16.60;30.25
59194;BME280;44967;48.598;15.650;2023-04-27T10:42:45;98509.00;;;16.36;28.86
59194;BME280;44967;48.598;15.650;2023-04-27T10:45:13;98512.13;;;15.55;29.51
59194;BME280;44967;48.598;15.650;2023-04-27T10:47:41;98513.06;;;15.16;30.69
59194;BME280;44967;48.598;15.650;2023-04-27T10:50:08;98510.03;;;14.84;30.41
59194;BME280;44967;48.598;15.650;2023-04-27T10:52:42;98511.44;;;15.32;31.80
59194;BME280;44967;48.598;15.650;2023-04-27T10:55:20;98513.78;;;15.38;31.17
59194;BME280;44967;48.598;15.650;2023-04-27T10:57:50;98507.28;;;15.06;29.92
59194;BME280;44967;48.598;15.650;2023-04-27T11:00:24;98506.41;;;15.05;31.94
59194;BME280;44967;48.598;15.650;2023-04-27T11:02:55;98507.44;;;14.62;31.84
59194;BME280;44967;48.598;15.650;2023-04-27T11:05:23;98502.81;;;14.46;33.38
59194;BME280;44967;48.598;15.650;2023-04-27T11:07:50;98508.69;;;14.54;32.28
59194;BME280;44967;48.598;15.650;2023-04-27T11:10:17;98510.47;;;13.68;33.14
59194;BME280;44967;48.598;15.650;2023-04-27T11:12:44;98514.50;;;14.22;33.37
59194;BME280;44967;48.598;15.650;2023-04-27T11:15:10;98507.72;;;14.56;33.84
59194;BME280;44967;48.598;15.650;2023-04-27T11:17:37;98507.53;;;14.61;32.22
59194;BME280;44967;48.598;15.650;2023-04-27T11:20:03;98494.94;;;14.65;31.81
59194;BME280;44967;48.598;15.650;2023-04-27T11:22:34;98493.16;;;14.65;32.18
59194;BME280;44967;48.598;15.650;2023-04-27T11:24:59;98488.94;;;15.19;32.16
59194;BME280;44967;48.598;15.650;2023-04-27T11:27:35;98485.38;;;15.57;32.40
59194;BME280;44967;48.598;15.650;2023-04-27T11:30:02;98479.56;;;15.68;32.05
59194;BME280;44967;48.598;15.650;2023-04-27T11:32:29;98477.16;;;15.43;30.08
59194;BME280;44967;48.598;15.650;2023-04-27T11:34:55;98481.50;;;14.68;30.94
59194;BME280;44967;48.598;15.650;2023-04-27T11:37:22;98464.81;;;14.64;30.79
59194;BME280;44967;48.598;15.650;2023-04-27T11:39:54;98480.13;;;14.98;32.30
59194;BME280;44967;48.598;15.650;2023-04-27T11:42:23;98480.97;;;15.19;31.37
59194;BME280;44967;48.598;15.650;2023-04-27T11:47:19;98471.84;;;15.24;32.24
59194;BME280;44967;48.598;15.650;2023-04-27T11:49:47;98478.22;;;15.76;32.01
59194;BME280;44967;48.598;15.650;2023-04-27T11:52:13;98469.53;;;15.91;32.52
59194;BME280;44967;48.598;15.650;2023-04-27T11:54:46;98466.06;;;15.89;30.85
59194;BME280;44967;48.598;15.650;2023-04-27T11:57:12;98458.53;;;15.97;31.55
59194;BME280;44967;48.598;15.650;2023-04-27T11:59:38;98471.13;;;15.77;32.68
59194;BME280;44967;48.598;15.650;2023-04-27T12:02:04;98453.63;;;16.07;32.06
59194;BME280;44967;48.598;15.650;2023-04-27T12:04:30;98465.19;;;15.89;30.74
59194;BME280;44967;48.598;15.650;2023-04-27T12:06:56;98452.09;;;15.84;31.64
59194;BME280;44967;48.598;15.650;2023-04-27T12:09:22;98453.84;;;16.20;30.95
59194;BME280;44967;48.598;15.650;2023-04-27T12:11:48;98455.97;;;16.13;31.62
59194;BME280;44967;48.598;15.650;2023-04-27T12:14:13;98445.47;;;16.10;31.39
59194;BME280;44967;48.598;15.650;2023-04-27T12:16:39;98455.22;;;15.92;31.38
59194;BME280;44967;48.598;15.650;2023-04-27T12:19:05;98452.13;;;15.66;31.74
59194;BME280;44967;48.598;15.650;2023-04-27T12:21:31;98446.97;;;16.16;31.82
59194;BME280;44967;48.598;15.650;2023-04-27T12:23:58;98453.44;;;15.93;30.42
59194;BME280;44967;48.598;15.650;2023-04-27T12:26:24;98449.31;;;15.31;30.13
59194;BME280;44967;48.598;15.650;2023-04-27T12:28:49;98445.34;;;15.40;31.48
59194;BME280;44967;48.598;15.650;2023-04-27T12:31:15;98455.47;;;15.52;32.29
59194;BME280;44967;48.598;15.650;2023-04-27T12:33:43;98455.63;;;15.85;32.15
59194;BME280;44967;48.598;15.650;2023-04-27T12:36:09;98455.81;;;15.63;30.87
59194;BME280;44967;48.598;15.650;2023-04-27T12:38:35;98460.47;;;15.21;31.54
59194;BME280;44967;48.598;15.650;2023-04-27T12:41:01;98450.38;;;15.08;32.43
59194;BME280;44967;48.598;15.650;2023-04-27T12:43:27;98454.03;;;14.67;32.27
59194;BME280;44967;48.598;15.650;2023-04-27T12:45:52;98452.03;;;14.72;32.46
59194;BME280;44967;48.598;15.650;2023-04-27T12:48:18;98450.94;;;14.96;32.83
59194;BME280;44967;48.598;15.650;2023-04-27T12:50:44;98449.94;;;15.18;33.07
59194;BME280;44967;48.598;15.650;2023-04-27T12:53:09;98444.34;;;15.24;32.78
59194;BME280;44967;48.598;15.650;2023-04-27T12:55:35;98445.34;;;15.77;32.56
59194;BME280;44967;48.598;15.650;2023-04-27T12:58:02;98447.50;;;15.88;32.50
59194;BME280;44967;48.598;15.650;2023-04-27T13:00:29;98437.78;;;16.21;32.37